Time;durP1;ratioP1;P1;durP2;ratioP2;P2;SDS_P1;SDS_P2;PMS_P1;PMS_P2;Temp;Humidity;BMP_temperature;BMP_pressure;BME280_temperature;BME280_humidity;BME280_pressure;Samples;Min_cycle;Max_cycle;Signal;HPM_P1;HPM_P2
2021/05/06 00:01:01;;;;;;;19.67;13.85;;;8.50;99.90;;;;;;5061389;28;20533;-72
2021/05/06 00:08:54;;;;;;;15.48;11.82;;;8.40;99.90;;;;;;5062189;28;21022;-71
2021/05/06 00:33:02;;;;;;;14.73;11.93;;;8.60;99.90;;;;;;5061569;28;20028;-72
2021/05/06 00:35:31;;;;;;;16.17;12.48;;;8.50;99.90;;;;;;5063097;28;20010;-72
2021/05/06 00:41:13;;;;;;;10.68;9.57;;;8.60;99.90;;;;;;5030783;28;20028;-72
2021/05/06 00:44:08;;;;;;;10.77;9.20;;;8.60;99.90;;;;;;5063971;28;20384;-71
2021/05/06 00:55:48;;;;;;;10.52;8.73;;;8.70;99.90;;;;;;5048605;28;20040;-72
2021/05/06 01:01:06;;;;;;;8.00;6.95;;;8.70;99.90;;;;;;5006977;28;20042;-72
2021/05/06 01:06:20;;;;;;;9.10;7.70;;;8.60;99.90;;;;;;5060669;28;20485;-72
2021/05/06 01:08:52;;;;;;;10.27;8.18;;;8.60;99.90;;;;;;5064043;28;20029;-72
2021/05/06 01:13:53;;;;;;;13.90;7.80;;;8.50;99.90;;;;;;5065654;28;19912;-72
2021/05/06 01:16:19;;;;;;;10.18;7.15;;;8.50;99.90;;;;;;5072161;28;20029;-72
2021/05/06 01:18:44;;;;;;;6.80;6.10;;;8.50;99.90;;;;;;5069241;28;20033;-72
2021/05/06 01:21:10;;;;;;;12.00;7.07;;;8.50;99.90;;;;;;5073422;28;20016;-72
2021/05/06 01:23:40;;;;;;;8.48;6.80;;;8.40;99.90;;;;;;5069991;28;20029;-72
2021/05/06 01:29:11;;;;;;;9.23;5.63;;;8.30;99.90;;;;;;5061328;28;20029;-72
2021/05/06 01:31:42;;;;;;;6.00;4.70;;;8.30;99.90;;;;;;5068677;28;20426;-72
2021/05/06 01:34:13;;;;;;;8.38;4.97;;;8.30;99.90;;;;;;5067224;28;20139;-71
2021/05/06 01:36:46;;;;;;;10.68;5.60;;;8.20;99.90;;;;;;5069551;28;20017;-72
2021/05/06 01:42:16;;;;;;;6.18;4.05;;;8.30;99.90;;;;;;5073026;28;20067;-72
2021/05/06 01:50:33;;;;;;;8.20;4.20;;;8.30;99.90;;;;;;5055007;28;20028;-72
2021/05/06 01:59:14;;;;;;;5.20;3.67;;;8.30;99.90;;;;;;5032154;28;20036;-72
2021/05/06 02:01:17;;;;;;;7.22;3.97;;;8.30;99.90;;;;;;5064591;28;20028;-72
2021/05/06 02:03:43;;;;;;;6.18;4.20;;;8.30;99.90;;;;;;5077010;28;20119;-72
2021/05/06 02:06:09;;;;;;;8.80;3.78;;;8.40;99.90;;;;;;5077242;28;20473;-72
2021/05/06 02:08:34;;;;;;;7.55;4.10;;;8.40;99.90;;;;;;5073142;28;20048;-72
2021/05/06 02:11:01;;;;;;;8.80;4.03;;;8.40;99.90;;;;;;5073719;28;20051;-72
2021/05/06 02:13:27;;;;;;;8.00;3.65;;;8.40;99.90;;;;;;5071069;28;20817;-72
2021/05/06 02:15:59;;;;;;;8.07;4.13;;;8.20;99.90;;;;;;5071135;28;20048;-72
2021/05/06 02:18:25;;;;;;;7.57;4.00;;;8.30;99.90;;;;;;5073384;28;20436;-71
2021/05/06 02:20:52;;;;;;;8.63;3.95;;;8.30;99.90;;;;;;5072595;28;20032;-72
2021/05/06 02:23:18;;;;;;;6.93;3.70;;;8.30;99.90;;;;;;5079018;28;20476;-72
2021/05/06 02:25:44;;;;;;;7.93;4.00;;;8.30;99.90;;;;;;5073067;28;20028;-71
2021/05/06 02:28:10;;;;;;;8.60;3.58;;;8.20;99.90;;;;;;5067471;28;20056;-71
2021/05/06 02:30:36;;;;;;;6.35;3.05;;;8.20;99.90;;;;;;5076348;28;20056;-72
2021/05/06 02:33:06;;;;;;;6.15;4.07;;;8.10;99.90;;;;;;5078595;28;20033;-72
2021/05/06 02:35:32;;;;;;;6.68;4.30;;;8.20;99.90;;;;;;5075578;28;20028;-72
2021/05/06 02:37:58;;;;;;;5.20;3.63;;;8.20;99.90;;;;;;5057948;28;20396;-72
2021/05/06 02:40:24;;;;;;;7.70;3.65;;;8.20;99.90;;;;;;5073494;28;20025;-72
2021/05/06 02:42:49;;;;;;;7.00;3.25;;;8.10;99.90;;;;;;5077452;28;20032;-72
2021/05/06 02:45:15;;;;;;;7.25;3.60;;;8.10;99.90;;;;;;5058512;28;20464;-71
2021/05/06 02:47:41;;;;;;;5.68;3.47;;;8.10;99.90;;;;;;5068274;28;20040;-71
2021/05/06 02:50:12;;;;;;;6.20;3.40;;;8.00;99.90;;;;;;5055470;28;20047;-71
2021/05/06 02:52:47;;;;;;;7.68;3.67;;;8.10;99.90;;;;;;5075957;28;20173;-71
2021/05/06 02:55:32;;;;;;;5.03;3.20;;;8.10;99.90;;;;;;5071641;28;20013;-72
2021/05/06 02:58:14;;;;;;;7.35;3.30;;;8.00;99.90;;;;;;5067024;28;20031;-72
2021/05/06 03:03:24;;;;;;;4.50;3.22;;;8.10;99.90;;;;;;5072224;28;20063;-71
2021/05/06 03:05:54;;;;;;;3.90;2.85;;;8.10;99.90;;;;;;5064810;28;20040;-72
2021/05/06 03:08:34;;;;;;;7.15;3.47;;;8.00;99.90;;;;;;5067686;28;20059;-72
2021/05/06 03:24:16;;;;;;;6.00;3.13;;;7.90;99.90;;;;;;5067926;28;20043;-71
2021/05/06 03:26:43;;;;;;;10.25;3.40;;;7.80;99.90;;;;;;5071696;28;20082;-72
2021/05/06 03:29:19;;;;;;;4.45;3.42;;;7.80;99.90;;;;;;5053924;28;20672;-71
2021/05/06 03:45:23;;;;;;;6.25;3.97;;;7.90;99.90;;;;;;5066744;28;20066;-71
2021/05/06 04:17:32;;;;;;;7.68;4.95;;;8.20;99.90;;;;;;5069168;28;20089;-71
2021/05/06 04:25:38;;;;;;;9.88;6.30;;;8.10;99.90;;;;;;5067717;28;20078;-71
2021/05/06 04:38:59;;;;;;;7.70;6.18;;;8.10;99.90;;;;;;5068479;28;20059;-72
2021/05/06 04:41:41;;;;;;;12.00;7.30;;;8.20;99.90;;;;;;5066803;28;20078;-71
2021/05/06 04:45:08;;;;;;;8.93;6.78;;;8.20;99.90;;;;;;5067810;28;20032;-71
2021/05/06 04:55:15;;;;;;;12.80;7.38;;;8.40;99.90;;;;;;5077647;28;20046;-71
2021/05/06 04:58:46;;;;;;;13.90;6.40;;;8.30;99.90;;;;;;5070597;28;20443;-71
2021/05/06 05:03:34;;;;;;;10.88;7.25;;;8.20;99.90;;;;;;5065611;28;20032;-71
2021/05/06 05:06:00;;;;;;;10.30;6.82;;;8.30;99.90;;;;;;5073623;28;20052;-71
2021/05/06 05:08:29;;;;;;;9.70;6.63;;;8.30;99.90;;;;;;5070275;28;20036;-71
2021/05/06 05:26:53;;;;;;;12.55;7.00;;;8.10;99.90;;;;;;5066382;28;20044;-72
2021/05/06 05:29:19;;;;;;;10.95;6.75;;;8.10;99.90;;;;;;5069587;28;20821;-71
2021/05/06 05:31:44;;;;;;;12.35;6.63;;;8.10;99.90;;;;;;5077080;28;20020;-72
2021/05/06 05:36:42;;;;;;;10.95;6.70;;;8.20;99.90;;;;;;5080144;28;20051;-71
2021/05/06 05:39:25;;;;;;;10.27;6.97;;;8.10;99.90;;;;;;5074652;28;20697;-72
2021/05/06 05:55:26;;;;;;;8.77;5.97;;;8.30;99.90;;;;;;5050661;28;20028;-71
2021/05/06 05:57:52;;;;;;;8.95;5.40;;;8.20;99.90;;;;;;5069930;28;20091;-72
2021/05/06 06:00:19;;;;;;;8.57;5.85;;;8.30;99.90;;;;;;5067485;28;20029;-71
2021/05/06 06:02:45;;;;;;;7.57;6.10;;;8.20;99.90;;;;;;5072846;28;20365;-71
2021/05/06 06:05:11;;;;;;;10.30;6.50;;;8.20;99.90;;;;;;5071221;28;20028;-72
2021/05/06 06:07:37;;;;;;;13.63;7.43;;;8.20;99.90;;;;;;5072588;28;20440;-71
2021/05/06 06:10:04;;;;;;;10.50;7.25;;;8.30;99.90;;;;;;5070103;28;20136;-72
2021/05/06 06:12:30;;;;;;;12.02;7.60;;;8.40;99.90;;;;;;5071951;28;20112;-71
2021/05/06 06:15:00;;;;;;;13.02;7.47;;;8.50;99.90;;;;;;5070771;28;20112;-71
2021/05/06 06:17:29;;;;;;;13.82;8.32;;;8.60;99.90;;;;;;5071402;28;20066;-71
2021/05/06 06:19:58;;;;;;;13.65;8.35;;;8.60;99.90;;;;;;5071566;28;20481;-71
2021/05/06 06:22:25;;;;;;;15.90;8.93;;;8.70;99.90;;;;;;5069911;28;20124;-71
2021/05/06 06:24:51;;;;;;;11.43;8.73;;;8.70;99.90;;;;;;5068788;28;20040;-71
2021/05/06 06:27:18;;;;;;;13.43;9.98;;;8.80;99.90;;;;;;5069612;28;20036;-71
2021/05/06 06:29:44;;;;;;;16.90;9.63;;;8.80;99.90;;;;;;5074936;28;20029;-71
2021/05/06 06:32:13;;;;;;;15.88;8.88;;;8.90;99.90;;;;;;5072140;28;20032;-71
2021/05/06 06:34:39;;;;;;;15.98;8.73;;;8.90;99.90;;;;;;5072051;28;20021;-71
2021/05/06 06:37:04;;;;;;;13.70;9.07;;;9.00;99.90;;;;;;5076513;28;20028;-71
2021/05/06 06:39:30;;;;;;;14.27;9.57;;;9.00;99.90;;;;;;5048397;28;20063;-71
2021/05/06 06:41:56;;;;;;;13.02;9.15;;;9.10;99.90;;;;;;5072703;28;20116;-71
2021/05/06 06:44:28;;;;;;;15.60;9.13;;;9.20;99.90;;;;;;5053965;28;20385;-71
2021/05/06 06:47:01;;;;;;;;;;;9.30;99.90;;;;;;5072000;28;20040;-72
2021/05/06 06:49:40;;;;;;;15.43;9.35;;;9.30;99.90;;;;;;5070120;28;19916;-72
2021/05/06 06:52:09;;;;;;;14.55;9.73;;;9.50;99.90;;;;;;5071613;28;20021;-72
2021/05/06 06:54:35;;;;;;;13.48;11.25;;;9.40;99.90;;;;;;5078542;28;20074;-71
2021/05/06 06:57:01;;;;;;;14.85;10.40;;;9.30;99.90;;;;;;5074218;28;20516;-71
2021/05/06 06:59:27;;;;;;;15.23;9.77;;;9.50;99.90;;;;;;5072891;28;20027;-71
2021/05/06 07:01:53;;;;;;;14.60;10.77;;;9.50;99.90;;;;;;5071618;28;20016;-71
2021/05/06 07:04:19;;;;;;;15.38;10.65;;;9.50;99.90;;;;;;5071447;28;20047;-72
2021/05/06 07:06:45;;;;;;;15.85;9.95;;;9.50;99.90;;;;;;5076400;28;20032;-72
2021/05/06 07:09:11;;;;;;;13.98;10.00;;;9.60;99.90;;;;;;5075591;28;20032;-71
2021/05/06 07:11:38;;;;;;;12.10;10.85;;;9.60;99.90;;;;;;5071565;28;20045;-72
2021/05/06 07:14:05;;;;;;;16.02;10.60;;;9.60;99.90;;;;;;5071205;28;20020;-71
2021/05/06 07:16:31;;;;;;;11.73;9.93;;;9.70;99.90;;;;;;5074311;28;20036;-72
2021/05/06 07:18:57;;;;;;;14.07;10.65;;;9.70;99.90;;;;;;5073053;28;20378;-72
2021/05/06 07:21:26;;;;;;;11.57;9.80;;;9.70;99.90;;;;;;5068577;28;20031;-71
2021/05/06 07:23:56;;;;;;;12.90;9.68;;;9.70;99.90;;;;;;5073196;28;20028;-72
2021/05/06 07:26:24;;;;;;;13.20;10.90;;;9.80;99.90;;;;;;5047871;28;20063;-72
2021/05/06 07:28:50;;;;;;;13.82;11.27;;;9.90;99.90;;;;;;5074436;28;20040;-72
2021/05/06 07:31:16;;;;;;;18.73;11.85;;;9.90;99.90;;;;;;5072283;28;20089;-72
2021/05/06 07:33:45;;;;;;;15.85;11.05;;;9.90;99.90;;;;;;5072133;28;20031;-72
2021/05/06 07:36:11;;;;;;;13.65;10.27;;;10.10;99.90;;;;;;5069446;28;20016;-72
2021/05/06 07:38:37;;;;;;;16.58;11.52;;;10.30;99.90;;;;;;5070189;28;20036;-72
2021/05/06 07:41:03;;;;;;;11.95;10.80;;;10.40;99.90;;;;;;5070638;28;20428;-71
2021/05/06 07:43:30;;;;;;;15.60;11.35;;;10.50;99.90;;;;;;5048216;28;20534;-72
2021/05/06 07:45:57;;;;;;;10.35;9.20;;;10.70;99.90;;;;;;5050255;28;20089;-72
2021/05/06 07:48:23;;;;;;;12.93;9.07;;;10.80;99.90;;;;;;5069678;28;20032;-72
2021/05/06 07:50:48;;;;;;;12.60;9.88;;;10.90;99.90;;;;;;5070724;28;20543;-71
2021/05/06 07:53:16;;;;;;;9.65;8.52;;;10.70;99.90;;;;;;5072224;28;20075;-72
2021/05/06 07:55:42;;;;;;;10.27;9.10;;;10.90;99.90;;;;;;5071511;28;20017;-72
2021/05/06 07:58:08;;;;;;;11.70;8.38;;;11.00;99.90;;;;;;5067964;28;20028;-72
2021/05/06 08:00:35;;;;;;;9.18;7.20;;;11.30;99.90;;;;;;5071211;28;20105;-72
2021/05/06 08:03:03;;;;;;;9.43;7.40;;;11.20;99.90;;;;;;5049356;28;20919;-72
2021/05/06 08:05:29;;;;;;;9.35;8.02;;;11.10;99.90;;;;;;5055014;28;20017;-72
2021/05/06 08:07:56;;;;;;;15.48;9.77;;;11.10;99.90;;;;;;5066131;28;20090;-72
2021/05/06 08:10:23;;;;;;;12.68;8.57;;;11.00;99.90;;;;;;5065532;28;20068;-72
2021/05/06 08:12:49;;;;;;;11.93;9.07;;;10.80;99.90;;;;;;5063858;28;20032;-72
2021/05/06 08:15:16;;;;;;;10.85;8.00;;;10.70;99.90;;;;;;5052108;28;20033;-71
2021/05/06 08:17:42;;;;;;;10.50;8.38;;;10.70;99.90;;;;;;5062110;28;20032;-70
2021/05/06 08:20:11;;;;;;;11.40;8.18;;;10.60;99.90;;;;;;5063928;28;20025;-71
2021/05/06 08:22:37;;;;;;;12.38;7.53;;;10.70;99.90;;;;;;5067445;28;20032;-71
2021/05/06 08:25:04;;;;;;;9.90;8.32;;;10.90;99.90;;;;;;5064930;28;20024;-70
2021/05/06 08:27:33;;;;;;;10.75;8.70;;;11.00;99.90;;;;;;5065228;28;20071;-71
2021/05/06 08:30:00;;;;;;;8.50;7.70;;;11.00;99.90;;;;;;5058903;28;20102;-71
2021/05/06 08:32:27;;;;;;;11.90;8.90;;;11.00;99.90;;;;;;5063548;28;20025;-71
2021/05/06 08:34:54;;;;;;;13.15;8.38;;;10.90;99.90;;;;;;5059886;28;20476;-71
2021/05/06 08:37:19;;;;;;;8.52;7.60;;;10.90;99.90;;;;;;5062801;28;20478;-71
2021/05/06 08:39:45;;;;;;;9.13;7.25;;;11.00;99.90;;;;;;5077538;28;20031;-72
2021/05/06 08:42:12;;;;;;;11.50;7.53;;;11.00;99.90;;;;;;5050434;28;20029;-72
2021/05/06 08:44:38;;;;;;;7.60;6.90;;;10.90;99.90;;;;;;5078716;28;20027;-72
2021/05/06 08:47:12;;;;;;;8.82;7.93;;;10.90;99.90;;;;;;5074330;28;20070;-72
2021/05/06 08:49:39;;;;;;;10.13;6.63;;;11.00;99.90;;;;;;5087153;28;20142;-72
2021/05/06 08:52:10;;;;;;;9.80;7.68;;;11.20;99.90;;;;;;5075526;28;20131;-71
2021/05/06 08:54:36;;;;;;;13.38;7.47;;;11.10;99.90;;;;;;5078362;28;20035;-71
2021/05/06 08:57:03;;;;;;;8.95;7.55;;;11.20;99.90;;;;;;5059379;28;20078;-71
2021/05/06 08:59:28;;;;;;;7.63;6.93;;;11.10;99.90;;;;;;5080985;28;20484;-72
2021/05/06 09:01:56;;;;;;;7.72;6.97;;;11.00;99.90;;;;;;5082679;28;20028;-72
2021/05/06 09:04:21;;;;;;;7.82;6.80;;;11.10;99.90;;;;;;5080205;28;20025;-72
2021/05/06 09:06:58;;;;;;;9.95;6.40;;;11.30;99.90;;;;;;5068651;28;20047;-72
2021/05/06 09:09:26;;;;;;;8.77;6.10;;;11.30;99.90;;;;;;5071091;28;20082;-72
2021/05/06 09:11:56;;;;;;;7.85;6.13;;;11.60;99.90;;;;;;5071790;28;20028;-72
2021/05/06 09:14:45;;;;;;;6.85;5.38;;;11.90;99.90;;;;;;5078189;28;20024;-71
2021/05/06 09:17:34;;;;;;;9.57;5.88;;;12.10;99.90;;;;;;5081552;28;20109;-72
2021/05/06 09:20:05;;;;;;;6.97;6.28;;;12.10;99.90;;;;;;5082755;28;20388;-72
2021/05/06 09:22:32;;;;;;;9.43;6.17;;;12.00;99.90;;;;;;5079117;28;20480;-72
2021/05/06 09:25:23;;;;;;;7.10;5.97;;;12.10;99.90;;;;;;5077566;28;20469;-72
2021/05/06 09:28:12;;;;;;;7.53;6.47;;;12.20;99.90;;;;;;5082294;28;20122;-72
2021/05/06 09:30:52;;;;;;;7.80;5.82;;;12.50;99.90;;;;;;5084070;28;20016;-72
2021/05/06 09:33:31;;;;;;;7.57;5.25;;;12.50;99.90;;;;;;5065787;28;20033;-72
2021/05/06 09:35:58;;;;;;;5.25;4.50;;;12.40;99.90;;;;;;5082775;28;20021;-72
2021/05/06 09:38:28;;;;;;;4.25;3.83;;;12.40;99.90;;;;;;5078746;28;20028;-72
2021/05/06 09:40:57;;;;;;;6.18;3.55;;;12.40;99.90;;;;;;5061783;28;20122;-72
2021/05/06 09:43:26;;;;;;;5.22;3.63;;;12.60;99.90;;;;;;5073703;28;20013;-72
2021/05/06 09:45:52;;;;;;;6.63;4.68;;;12.80;99.90;;;;;;5085215;28;20039;-72
2021/05/06 09:48:20;;;;;;;7.80;5.80;;;12.90;99.90;;;;;;5078109;28;20114;-72
2021/05/06 09:50:51;;;;;;;10.00;6.10;;;13.20;99.90;;;;;;5084953;28;20047;-72
2021/05/06 09:53:22;;;;;;;7.75;4.50;;;13.20;99.90;;;;;;5074507;28;20025;-72
2021/05/06 09:55:48;;;;;;;4.40;3.88;;;13.30;99.90;;;;;;5074587;28;20025;-72
2021/05/06 09:58:22;;;;;;;4.97;4.45;;;13.50;99.90;;;;;;5081789;28;20082;-72
2021/05/06 10:00:49;;;;;;;7.78;4.10;;;13.40;99.90;;;;;;5076942;28;20043;-72
2021/05/06 10:03:18;;;;;;;4.95;3.33;;;13.50;99.90;;;;;;5084456;28;20023;-72
2021/05/06 10:05:45;;;;;;;4.55;3.70;;;13.90;99.90;;;;;;5072342;28;20027;-72
2021/05/06 10:08:11;;;;;;;6.90;3.92;;;14.40;99.90;;;;;;5048277;28;20456;-72
2021/05/06 10:10:39;;;;;;;3.72;3.30;;;14.60;99.90;;;;;;5039231;28;20476;-72
2021/05/06 10:13:07;;;;;;;6.35;3.13;;;14.70;99.90;;;;;;5064241;28;20067;-72
2021/05/06 10:15:33;;;;;;;4.95;3.10;;;14.80;99.90;;;;;;5074278;28;20099;-71
2021/05/06 10:17:59;;;;;;;4.20;2.53;;;14.90;99.90;;;;;;5071678;28;20112;-72
2021/05/06 10:20:26;;;;;;;4.47;2.58;;;15.20;98.70;;;;;;5057832;28;20115;-71
2021/05/06 10:22:53;;;;;;;3.85;2.40;;;15.30;98.30;;;;;;5072532;28;20029;-72
2021/05/06 10:25:21;;;;;;;3.38;2.10;;;15.40;99.80;;;;;;5074446;28;20465;-71
2021/05/06 10:27:48;;;;;;;4.28;2.80;;;15.30;97.90;;;;;;5072868;28;20028;-72
2021/05/06 10:30:14;;;;;;;2.50;2.30;;;15.60;96.70;;;;;;5063974;28;20349;-72
2021/05/06 10:32:42;;;;;;;3.55;2.38;;;15.40;98.10;;;;;;5071230;28;20027;-72
2021/05/06 10:35:22;;;;;;;3.35;2.92;;;15.40;97.70;;;;;;5072190;28;20836;-72
2021/05/06 10:37:56;;;;;;;3.05;2.63;;;15.60;96.40;;;;;;5068767;28;20062;-72
2021/05/06 10:40:22;;;;;;;2.97;2.55;;;15.70;96.80;;;;;;5076017;28;20111;-69
2021/05/06 10:42:49;;;;;;;5.88;2.80;;;15.50;97.20;;;;;;5047983;28;20043;-76
2021/05/06 10:45:14;;;;;;;4.35;2.63;;;15.60;97.40;;;;;;5074644;28;20074;-72
2021/05/06 10:47:43;;;;;;;3.60;2.35;;;15.60;98.50;;;;;;5071944;28;20033;-72
2021/05/06 10:50:10;;;;;;;2.13;1.73;;;15.40;97.10;;;;;;5070004;28;20039;-71
2021/05/06 10:52:37;;;;;;;3.97;1.60;;;15.70;96.80;;;;;;5076614;28;20384;-71
2021/05/06 10:55:04;;;;;;;4.55;1.77;;;15.80;94.50;;;;;;5074415;28;20100;-72
2021/05/06 10:57:34;;;;;;;6.65;2.10;;;15.70;95.60;;;;;;5065070;28;20028;-72
2021/05/06 11:00:00;;;;;;;2.45;1.42;;;15.80;96.40;;;;;;5051643;28;20024;-72
2021/05/06 11:02:44;;;;;;;2.80;1.80;;;15.90;93.00;;;;;;5065639;28;20021;-71
2021/05/06 11:05:21;;;;;;;2.53;1.70;;;15.80;93.70;;;;;;5069958;28;20052;-71
2021/05/06 11:08:22;;;;;;;6.00;2.05;;;15.60;94.20;;;;;;5048593;28;616119;-71
2021/05/06 11:10:48;;;;;;;2.90;1.45;;;15.60;93.20;;;;;;5010127;28;20051;-72
2021/05/06 11:13:15;;;;;;;3.05;1.38;;;15.10;93.90;;;;;;5067267;28;20093;-72
2021/05/06 11:15:41;;;;;;;2.90;1.77;;;15.30;93.60;;;;;;5070200;28;20476;-71
2021/05/06 11:18:09;;;;;;;2.35;1.42;;;15.40;95.40;;;;;;5068636;28;20036;-73
2021/05/06 11:20:38;;;;;;;3.35;1.73;;;15.30;93.70;;;;;;5070740;28;20554;-71
2021/05/06 11:23:03;;;;;;;2.80;1.60;;;15.30;92.70;;;;;;5055268;28;20031;-72
2021/05/06 11:25:37;;;;;;;9.98;1.92;;;15.00;92.40;;;;;;5073258;28;20025;-72
2021/05/06 11:28:05;;;;;;;5.75;1.80;;;15.20;93.50;;;;;;5070520;28;20047;-72
2021/05/06 11:30:42;;;;;;;2.92;1.33;;;15.50;92.70;;;;;;5070317;28;20099;-71
2021/05/06 11:33:26;;;;;;;2.10;1.55;;;15.40;91.90;;;;;;5080541;28;20115;-72
2021/05/06 11:36:17;;;;;;;3.40;1.63;;;15.30;90.00;;;;;;5055616;28;20016;-72
2021/05/06 11:38:45;;;;;;;7.75;2.08;;;15.10;92.40;;;;;;5074663;28;20375;-72
2021/05/06 11:41:16;;;;;;;4.07;1.50;;;15.00;92.50;;;;;;5065791;28;20021;-72
2021/05/06 11:43:46;;;;;;;11.55;2.15;;;14.90;91.90;;;;;;5070124;28;20584;-72
2021/05/06 11:46:26;;;;;;;3.00;1.50;;;14.90;92.60;;;;;;5066179;28;20029;-71
2021/05/06 11:48:58;;;;;;;3.38;1.80;;;15.10;91.40;;;;;;5070388;28;20069;-71
2021/05/06 11:51:34;;;;;;;3.38;1.92;;;15.20;91.70;;;;;;5057927;28;20477;-72
2021/05/06 11:54:06;;;;;;;9.30;1.67;;;15.30;91.00;;;;;;5073010;28;20100;-72
2021/05/06 11:56:33;;;;;;;3.60;1.73;;;15.30;90.40;;;;;;5075639;28;20250;-72
2021/05/06 11:58:59;;;;;;;3.65;1.92;;;15.20;90.70;;;;;;5060312;28;20025;-72
2021/05/06 12:01:29;;;;;;;2.97;1.70;;;15.20;91.80;;;;;;5065220;28;20021;-72
2021/05/06 12:03:56;;;;;;;3.33;1.65;;;15.00;92.40;;;;;;5076373;28;20031;-72
2021/05/06 12:06:30;;;;;;;3.90;1.50;;;15.00;92.20;;;;;;5068071;28;20036;-71
2021/05/06 12:08:57;;;;;;;2.42;1.80;;;14.80;92.10;;;;;;5068533;28;20119;-72
2021/05/06 12:11:39;;;;;;;2.25;1.52;;;14.70;91.70;;;;;;5065336;28;20013;-72
2021/05/06 12:14:06;;;;;;;2.03;1.50;;;14.60;93.00;;;;;;5064041;28;20032;-72
2021/05/06 12:16:32;;;;;;;2.22;1.58;;;14.60;91.50;;;;;;5068357;28;20109;-72
2021/05/06 12:19:11;;;;;;;5.40;1.75;;;14.70;93.20;;;;;;5034484;28;20032;-73
2021/05/06 12:21:48;;;;;;;3.45;1.83;;;14.50;91.10;;;;;;5067055;28;20028;-71
2021/05/06 12:24:41;;;;;;;5.63;2.17;;;14.60;92.00;;;;;;5065402;28;20029;-72
2021/05/06 12:27:20;;;;;;;3.50;1.75;;;14.80;92.60;;;;;;5071686;28;20060;-73
2021/05/06 12:29:47;;;;;;;1.58;1.35;;;15.00;92.50;;;;;;5058890;28;20087;-71
2021/05/06 12:32:23;;;;;;;3.15;1.67;;;14.90;91.50;;;;;;5060426;28;20016;-71
2021/05/06 12:34:49;;;;;;;2.85;2.10;;;15.20;93.00;;;;;;5070578;28;20028;-73
2021/05/06 12:37:16;;;;;;;2.38;1.55;;;15.40;93.10;;;;;;5067425;28;20032;-73
2021/05/06 12:39:45;;;;;;;2.53;1.90;;;15.60;93.40;;;;;;5059984;28;20081;-72
2021/05/06 12:42:11;;;;;;;3.17;1.85;;;15.70;92.00;;;;;;5065335;28;20508;-72
2021/05/06 12:44:39;;;;;;;3.03;1.70;;;15.70;89.70;;;;;;5066647;28;20133;-72
2021/05/06 12:47:19;;;;;;;3.17;1.60;;;15.50;90.90;;;;;;5067551;28;20040;-72
2021/05/06 12:50:18;;;;;;;4.32;1.95;;;15.40;91.70;;;;;;5060843;28;20031;-72
2021/05/06 12:52:50;;;;;;;2.33;1.55;;;15.50;91.00;;;;;;5066988;28;20059;-72
2021/05/06 12:55:28;;;;;;;2.42;1.52;;;15.40;90.40;;;;;;5072691;28;20504;-72
2021/05/06 12:58:04;;;;;;;3.60;1.40;;;15.40;90.40;;;;;;5065064;28;20507;-72
2021/05/06 13:00:32;;;;;;;4.00;1.90;;;15.00;90.60;;;;;;5068123;28;20034;-72
2021/05/06 13:03:03;;;;;;;5.20;2.45;;;15.00;91.00;;;;;;5070935;28;20024;-72
2021/05/06 13:05:36;;;;;;;2.55;1.83;;;14.70;87.80;;;;;;5068552;28;20070;-72
2021/05/06 13:08:03;;;;;;;2.53;1.40;;;14.80;90.30;;;;;;5049615;28;20036;-73
2021/05/06 13:10:32;;;;;;;2.88;2.05;;;14.90;88.10;;;;;;5071432;28;20407;-72
2021/05/06 13:12:59;;;;;;;4.82;1.83;;;14.90;90.00;;;;;;5073223;28;20036;-72
2021/05/06 13:15:25;;;;;;;4.85;2.38;;;14.90;89.00;;;;;;5076368;28;20043;-72
2021/05/06 13:17:52;;;;;;;5.18;2.03;;;14.90;88.30;;;;;;5067528;28;20476;-72
2021/05/06 13:20:22;;;;;;;5.28;2.25;;;14.80;88.80;;;;;;5067052;28;20017;-72
2021/05/06 13:23:10;;;;;;;2.78;1.60;;;14.80;87.30;;;;;;5069738;28;20019;-72
2021/05/06 13:25:48;;;;;;;7.18;2.47;;;14.90;88.90;;;;;;5070021;28;20048;-72
2021/05/06 13:28:16;;;;;;;2.90;1.80;;;14.80;90.20;;;;;;5078322;28;20115;-73
2021/05/06 13:30:43;;;;;;;4.80;1.90;;;14.80;89.40;;;;;;5075331;28;20295;-73
2021/05/06 13:33:12;;;;;;;2.80;1.58;;;14.70;90.00;;;;;;5069626;28;20020;-73
2021/05/06 13:35:38;;;;;;;3.78;2.30;;;14.60;89.70;;;;;;5090052;28;20020;-72
2021/05/06 13:38:03;;;;;;;3.85;1.92;;;14.70;91.90;;;;;;5054426;28;20150;-73
2021/05/06 13:40:29;;;;;;;5.05;1.95;;;14.70;91.20;;;;;;5073459;28;20032;-72
2021/05/06 13:42:54;;;;;;;4.50;1.88;;;14.70;92.20;;;;;;5066995;28;20020;-73
2021/05/06 13:45:20;;;;;;;6.38;2.22;;;14.70;90.10;;;;;;5069193;28;20016;-72
2021/05/06 13:47:48;;;;;;;3.15;2.38;;;14.70;88.20;;;;;;5067588;28;20393;-72
2021/05/06 13:50:17;;;;;;;3.85;1.73;;;14.70;88.50;;;;;;5071445;28;20008;-72
2021/05/06 13:52:43;;;;;;;5.90;2.40;;;14.80;89.60;;;;;;5075474;28;20029;-72
2021/05/06 13:55:10;;;;;;;3.58;2.30;;;14.90;90.00;;;;;;5073533;28;20012;-72
2021/05/06 13:57:37;;;;;;;5.45;2.38;;;15.00;90.60;;;;;;5079214;28;20039;-72
2021/05/06 14:00:04;;;;;;;4.03;1.98;;;15.10;90.10;;;;;;5057125;28;20021;-72
2021/05/06 14:02:30;;;;;;;3.10;2.10;;;15.10;89.10;;;;;;5074536;28;20021;-72
2021/05/06 14:04:56;;;;;;;3.72;2.00;;;15.00;87.80;;;;;;5072217;28;20366;-73
2021/05/06 14:07:22;;;;;;;2.40;1.98;;;15.10;87.00;;;;;;5077395;28;20044;-73
2021/05/06 14:09:48;;;;;;;3.47;1.90;;;15.00;87.40;;;;;;5072258;28;20023;-73
2021/05/06 14:12:14;;;;;;;5.75;1.92;;;15.00;88.20;;;;;;5052048;28;20029;-73
2021/05/06 14:14:39;;;;;;;2.60;1.65;;;15.00;89.60;;;;;;5076569;28;20416;-73
2021/05/06 14:17:05;;;;;;;4.07;1.77;;;15.00;87.40;;;;;;5070157;28;20076;-73
2021/05/06 14:19:31;;;;;;;3.85;1.58;;;15.00;90.50;;;;;;5070065;28;20437;-72
2021/05/06 14:21:56;;;;;;;3.75;1.80;;;15.00;89.40;;;;;;5065867;28;20128;-73
2021/05/06 14:24:22;;;;;;;5.38;1.70;;;15.10;90.10;;;;;;5077251;28;20028;-73
2021/05/06 14:26:49;;;;;;;3.45;1.60;;;15.10;82.90;;;;;;5072775;28;20032;-73
2021/05/06 14:29:19;;;;;;;2.80;1.30;;;15.00;87.00;;;;;;5069940;28;20104;-73
2021/05/06 14:31:45;;;;;;;2.95;1.67;;;15.10;85.50;;;;;;5068689;28;20026;-72
2021/05/06 14:34:11;;;;;;;3.42;1.92;;;15.10;85.40;;;;;;5055775;28;20464;-72
2021/05/06 14:36:36;;;;;;;2.97;1.77;;;15.00;86.80;;;;;;5076012;28;20033;-72
2021/05/06 14:39:04;;;;;;;3.53;1.80;;;15.10;87.40;;;;;;5076469;28;20106;-72
2021/05/06 14:41:30;;;;;;;5.00;1.35;;;15.00;88.50;;;;;;5066732;28;20470;-73
2021/05/06 14:43:57;;;;;;;2.05;1.38;;;15.10;87.10;;;;;;5053023;28;20035;-72
2021/05/06 14:46:23;;;;;;;3.53;1.60;;;15.00;83.60;;;;;;5057206;28;20055;-73
2021/05/06 14:48:49;;;;;;;2.42;1.67;;;15.00;85.00;;;;;;5043338;28;20398;-73
2021/05/06 14:51:15;;;;;;;3.55;1.60;;;15.00;86.20;;;;;;5069660;28;20028;-72
2021/05/06 14:53:41;;;;;;;2.55;1.50;;;15.00;87.90;;;;;;5070812;28;20020;-73
2021/05/06 14:56:06;;;;;;;2.97;1.70;;;15.00;86.10;;;;;;5070583;28;20804;-73
2021/05/06 14:58:32;;;;;;;4.00;1.60;;;15.00;85.60;;;;;;5069735;28;20024;-73
2021/05/06 15:00:58;;;;;;;3.55;1.60;;;15.00;86.40;;;;;;5069304;28;21287;-73
2021/05/06 15:03:24;;;;;;;2.20;1.65;;;14.90;86.40;;;;;;5068320;28;20029;-72
2021/05/06 15:05:50;;;;;;;3.15;1.45;;;14.90;86.30;;;;;;5063917;28;20078;-73
2021/05/06 15:08:17;;;;;;;5.03;2.28;;;14.70;86.80;;;;;;5069216;28;20063;-72
2021/05/06 15:10:44;;;;;;;3.83;1.92;;;14.70;85.90;;;;;;5067915;28;20027;-73
2021/05/06 15:13:10;;;;;;;2.90;1.52;;;14.60;89.20;;;;;;5069588;28;20052;-73
2021/05/06 15:15:36;;;;;;;3.00;1.83;;;14.50;85.90;;;;;;5069185;28;20060;-73
2021/05/06 15:18:01;;;;;;;2.65;1.50;;;14.50;86.80;;;;;;5069505;28;20116;-73
2021/05/06 15:20:27;;;;;;;3.05;1.90;;;14.50;85.70;;;;;;5068323;28;20469;-73
2021/05/06 15:22:53;;;;;;;3.20;1.98;;;14.40;84.90;;;;;;5070429;28;20020;-73
2021/05/06 15:25:23;;;;;;;2.95;1.80;;;14.40;86.50;;;;;;5065982;28;20401;-72
2021/05/06 15:27:50;;;;;;;5.13;2.00;;;14.40;87.60;;;;;;5068538;28;20032;-72
2021/05/06 15:30:17;;;;;;;2.47;1.85;;;14.40;88.70;;;;;;5067749;28;20055;-72
2021/05/06 15:32:44;;;;;;;3.33;2.33;;;14.50;89.10;;;;;;5069305;28;20048;-72
2021/05/06 15:35:11;;;;;;;3.45;2.25;;;14.30;90.30;;;;;;5066702;28;20063;-72
2021/05/06 15:37:36;;;;;;;4.10;2.30;;;14.30;90.70;;;;;;5068624;28;20024;-72
2021/05/06 15:40:08;;;;;;;6.30;2.00;;;14.30;90.80;;;;;;5069780;28;20025;-72
2021/05/06 15:42:34;;;;;;;3.10;1.80;;;14.30;90.60;;;;;;5067006;28;20407;-72
2021/05/06 15:44:59;;;;;;;7.10;1.90;;;14.40;92.10;;;;;;5071376;28;20723;-72
2021/05/06 15:47:25;;;;;;;3.63;2.13;;;14.30;92.10;;;;;;5066626;28;20473;-73
2021/05/06 15:49:50;;;;;;;5.43;2.15;;;14.40;90.70;;;;;;5068856;28;20377;-72
2021/05/06 15:52:18;;;;;;;5.57;1.80;;;14.40;90.50;;;;;;5055366;28;20031;-72
2021/05/06 15:54:44;;;;;;;3.42;1.85;;;14.40;91.00;;;;;;5077319;28;20461;-72
2021/05/06 15:57:10;;;;;;;2.45;1.75;;;14.40;91.30;;;;;;5073581;28;20103;-72
2021/05/06 15:59:36;;;;;;;3.45;2.40;;;14.50;91.70;;;;;;5070845;28;20028;-72
2021/05/06 16:02:04;;;;;;;2.50;2.00;;;14.50;91.70;;;;;;5054295;28;20170;-72